Time;durP1;ratioP1;P1;durP2;ratioP2;P2;SDS_P1;SDS_P2;PMS_P1;PMS_P2;Temp;Humidity;BMP_temperature;BMP_pressure;BME280_temperature;BME280_humidity;BME280_pressure;Samples;Min_cycle;Max_cycle;Signal;HPM_P1;HPM_P2
2021/11/07 00:00:40;;;;;;;13.85;10.35;;;;;;;;;;5105054;22;20561;-83
2021/11/07 00:03:16;;;;;;;12.32;10.45;;;;;;;;;;5099968;28;20407;-85
2021/11/07 00:05:49;;;;;;;11.93;9.77;;;;;;;;;;5098085;28;20438;-85
2021/11/07 00:08:30;;;;;;;10.63;9.38;;;;;;;;;;5103281;28;20460;-85
2021/11/07 00:11:04;;;;;;;11.20;9.88;;;;;;;;;;5096200;28;21024;-84
2021/11/07 00:13:33;;;;;;;11.32;9.85;;;;;;;;;;5104765;28;20519;-85
2021/11/07 00:16:08;;;;;;;11.55;9.10;;;;;;;;;;5098740;28;20485;-85
2021/11/07 00:18:40;;;;;;;10.57;8.80;;;;;;;;;;5104341;28;20916;-85
2021/11/07 00:21:13;;;;;;;12.80;8.68;;;;;;;;;;5100695;28;20402;-85
2021/11/07 00:23:59;;;;;;;10.10;8.57;;;;;;;;;;5104568;28;20406;-84
2021/11/07 00:26:33;;;;;;;10.25;7.93;;;;;;;;;;5106237;28;20518;-84
2021/11/07 00:29:05;;;;;;;11.27;8.40;;;;;;;;;;5102034;28;20561;-84
2021/11/07 00:31:44;;;;;;;9.13;7.80;;;;;;;;;;5102971;28;20500;-84
2021/11/07 00:34:40;;;;;;;9.83;7.90;;;;;;;;;;5106749;27;20444;-84
2021/11/07 00:37:09;;;;;;;9.93;8.20;;;;;;;;;;5099632;28;20491;-85
2021/11/07 00:39:44;;;;;;;9.52;8.02;;;;;;;;;;5102363;28;20471;-84
2021/11/07 00:42:20;;;;;;;11.07;8.38;;;;;;;;;;5097237;28;20473;-84
2021/11/07 00:44:55;;;;;;;10.57;7.90;;;;;;;;;;5101208;28;20412;-84
2021/11/07 00:47:39;;;;;;;11.23;8.77;;;;;;;;;;5101755;28;20458;-84
2021/11/07 00:50:12;;;;;;;10.85;8.90;;;;;;;;;;5099000;28;20482;-84
2021/11/07 00:52:51;;;;;;;11.30;8.68;;;;;;;;;;5100802;28;20435;-85
2021/11/07 00:55:24;;;;;;;10.63;8.70;;;;;;;;;;5103836;28;20487;-84
2021/11/07 00:57:58;;;;;;;11.38;8.93;;;;;;;;;;5097525;28;20446;-84
2021/11/07 01:00:38;;;;;;;11.70;8.88;;;;;;;;;;5100175;28;20464;-84
2021/11/07 01:03:13;;;;;;;12.55;8.75;;;;;;;;;;5098758;28;20468;-84
2021/11/07 01:05:42;;;;;;;10.53;8.80;;;;;;;;;;5101432;28;20601;-83
2021/11/07 01:08:11;;;;;;;10.57;8.70;;;;;;;;;;5099103;28;20537;-84
2021/11/07 01:10:40;;;;;;;10.15;8.95;;;;;;;;;;5103420;28;20449;-84
2021/11/07 01:13:12;;;;;;;10.98;9.05;;;;;;;;;;5099918;28;20414;-84
2021/11/07 01:15:41;;;;;;;10.25;9.07;;;;;;;;;;5120761;27;20641;-84
2021/11/07 01:18:10;;;;;;;10.32;8.93;;;;;;;;;;5116774;28;20472;-84
2021/11/07 01:20:39;;;;;;;9.55;8.57;;;;;;;;;;5106153;28;20434;-83
2021/11/07 01:23:14;;;;;;;10.55;8.90;;;;;;;;;;5105070;28;20438;-84
2021/11/07 01:25:45;;;;;;;11.00;8.63;;;;;;;;;;5103835;28;20859;-84
2021/11/07 01:28:18;;;;;;;9.88;8.70;;;;;;;;;;5101835;28;20577;-84
2021/11/07 01:30:50;;;;;;;9.63;8.60;;;;;;;;;;5094732;28;20424;-84
2021/11/07 01:33:22;;;;;;;9.15;8.20;;;;;;;;;;5102393;27;20431;-84
2021/11/07 01:36:00;;;;;;;11.13;8.27;;;;;;;;;;5099827;27;20951;-84
2021/11/07 01:38:28;;;;;;;9.10;8.10;;;;;;;;;;5101511;28;20477;-84
2021/11/07 01:41:02;;;;;;;9.48;8.43;;;;;;;;;;5101435;28;20525;-84
2021/11/07 01:43:31;;;;;;;9.30;7.57;;;;;;;;;;5097122;28;20863;-84
2021/11/07 01:46:07;;;;;;;8.02;7.22;;;;;;;;;;5104374;28;20399;-84
2021/11/07 01:48:41;;;;;;;9.23;7.32;;;;;;;;;;5100175;28;20496;-84
2021/11/07 01:51:10;;;;;;;9.27;6.45;;;;;;;;;;5099557;28;20478;-83
2021/11/07 01:53:39;;;;;;;8.85;6.40;;;;;;;;;;5101498;28;20411;-84
2021/11/07 01:56:09;;;;;;;7.28;6.05;;;;;;;;;;5100366;28;20406;-84
2021/11/07 01:58:38;;;;;;;7.70;6.40;;;;;;;;;;5102536;28;20461;-84
2021/11/07 02:01:06;;;;;;;9.38;6.72;;;;;;;;;;5101184;28;20406;-84
2021/11/07 02:03:33;;;;;;;8.38;6.90;;;;;;;;;;5103454;28;20413;-84
2021/11/07 02:06:01;;;;;;;7.97;6.10;;;;;;;;;;5099376;28;20465;-84
2021/11/07 02:08:29;;;;;;;7.03;5.82;;;;;;;;;;5099154;28;20453;-84
2021/11/07 02:10:57;;;;;;;6.75;6.03;;;;;;;;;;5099397;27;20819;-85
2021/11/07 02:13:25;;;;;;;7.13;6.43;;;;;;;;;;5098344;28;20809;-84
2021/11/07 02:15:55;;;;;;;9.27;7.20;;;;;;;;;;5098422;27;20452;-84
2021/11/07 02:18:23;;;;;;;8.10;6.83;;;;;;;;;;5102886;28;20455;-84
2021/11/07 02:20:51;;;;;;;9.43;7.25;;;;;;;;;;5098264;28;20406;-84
2021/11/07 02:23:21;;;;;;;9.80;7.28;;;;;;;;;;5101013;27;20408;-84
2021/11/07 02:25:50;;;;;;;10.33;7.40;;;;;;;;;;5099462;28;20954;-84
2021/11/07 02:28:24;;;;;;;8.60;7.03;;;;;;;;;;5101216;28;20428;-84
2021/11/07 02:30:52;;;;;;;9.60;6.83;;;;;;;;;;5096974;28;20447;-84
2021/11/07 02:33:19;;;;;;;8.50;6.75;;;;;;;;;;5102404;28;21062;-84
2021/11/07 02:35:46;;;;;;;8.25;7.38;;;;;;;;;;5101988;27;20415;-84
2021/11/07 02:38:14;;;;;;;9.07;6.72;;;;;;;;;;5099741;28;20400;-84
2021/11/07 02:40:41;;;;;;;10.17;6.83;;;;;;;;;;5102310;28;20446;-84
2021/11/07 02:43:08;;;;;;;8.05;6.90;;;;;;;;;;5101029;28;20877;-84
2021/11/07 02:45:35;;;;;;;8.27;6.85;;;;;;;;;;5104387;28;20470;-84
2021/11/07 02:48:02;;;;;;;9.13;6.43;;;;;;;;;;5098307;28;20427;-84
2021/11/07 02:50:29;;;;;;;7.40;6.60;;;;;;;;;;5102626;28;20418;-84
2021/11/07 02:52:56;;;;;;;7.65;6.85;;;;;;;;;;5101957;28;20390;-84
2021/11/07 02:55:25;;;;;;;7.85;6.43;;;;;;;;;;5098433;28;20500;-84
2021/11/07 02:57:55;;;;;;;7.22;6.05;;;;;;;;;;5100238;28;20401;-84
2021/11/07 03:00:23;;;;;;;8.20;6.83;;;;;;;;;;5097901;28;20498;-84
2021/11/07 03:02:50;;;;;;;8.02;6.00;;;;;;;;;;5094503;28;20458;-84
2021/11/07 03:05:19;;;;;;;8.32;7.05;;;;;;;;;;5096060;28;20403;-84
2021/11/07 03:07:46;;;;;;;7.23;6.53;;;;;;;;;;5096883;28;20532;-84
2021/11/07 03:10:15;;;;;;;7.65;6.50;;;;;;;;;;5093462;28;20436;-84
2021/11/07 03:12:43;;;;;;;8.40;7.47;;;;;;;;;;5092972;28;20405;-84
2021/11/07 03:15:12;;;;;;;8.18;7.38;;;;;;;;;;5090121;28;20409;-84
2021/11/07 03:17:40;;;;;;;8.40;6.80;;;;;;;;;;5092540;28;20820;-84
2021/11/07 03:20:09;;;;;;;7.57;6.53;;;;;;;;;;5091609;28;20413;-84
2021/11/07 03:22:36;;;;;;;7.05;6.28;;;;;;;;;;5088037;28;20427;-84
2021/11/07 03:25:04;;;;;;;7.38;6.25;;;;;;;;;;5100336;28;20399;-84
2021/11/07 03:27:37;;;;;;;7.22;5.90;;;;;;;;;;5091923;28;20429;-84
2021/11/07 03:30:11;;;;;;;7.00;5.72;;;;;;;;;;5093072;28;20404;-84
2021/11/07 03:32:40;;;;;;;6.32;5.35;;;;;;;;;;5091400;28;20415;-84
2021/11/07 03:35:16;;;;;;;6.43;5.30;;;;;;;;;;5096543;28;20456;-84
2021/11/07 03:37:54;;;;;;;6.28;5.30;;;;;;;;;;5093507;28;20453;-84
2021/11/07 03:40:22;;;;;;;6.05;5.10;;;;;;;;;;5091734;28;20491;-84
2021/11/07 03:42:49;;;;;;;6.20;5.10;;;;;;;;;;5096446;28;20414;-84
2021/11/07 03:45:18;;;;;;;6.88;5.50;;;;;;;;;;5090072;28;20410;-84
2021/11/07 03:47:45;;;;;;;8.37;5.60;;;;;;;;;;5096911;28;20415;-84
2021/11/07 03:50:12;;;;;;;6.43;5.30;;;;;;;;;;5102470;28;20490;-84
2021/11/07 03:52:39;;;;;;;5.35;4.85;;;;;;;;;;5104598;28;20485;-84
2021/11/07 03:55:08;;;;;;;5.85;5.13;;;;;;;;;;5085794;28;20406;-84
2021/11/07 03:57:35;;;;;;;6.80;5.60;;;;;;;;;;5096487;28;20400;-85
2021/11/07 04:00:02;;;;;;;5.80;5.25;;;;;;;;;;5101000;28;20419;-84
2021/11/07 04:02:30;;;;;;;7.77;5.50;;;;;;;;;;5105473;28;20411;-84
2021/11/07 04:04:57;;;;;;;6.22;5.53;;;;;;;;;;5103447;28;20499;-84
2021/11/07 04:07:24;;;;;;;6.03;5.40;;;;;;;;;;5096351;28;20413;-84
2021/11/07 04:09:51;;;;;;;6.32;5.10;;;;;;;;;;5102404;28;20432;-84
2021/11/07 04:12:18;;;;;;;5.60;5.00;;;;;;;;;;5099616;28;20484;-84
2021/11/07 04:14:45;;;;;;;7.63;5.40;;;;;;;;;;5098466;28;20408;-83
2021/11/07 04:17:12;;;;;;;5.43;4.82;;;;;;;;;;5115026;28;20427;-85
2021/11/07 04:19:40;;;;;;;6.00;4.72;;;;;;;;;;5112650;28;20399;-84
2021/11/07 04:22:09;;;;;;;5.90;4.90;;;;;;;;;;5101742;28;20403;-84
2021/11/07 04:24:37;;;;;;;5.38;4.70;;;;;;;;;;5097668;28;20451;-84
2021/11/07 04:27:04;;;;;;;5.18;4.68;;;;;;;;;;5097074;28;20405;-84
2021/11/07 04:29:31;;;;;;;5.30;4.80;;;;;;;;;;5097725;28;20795;-84
2021/11/07 04:31:59;;;;;;;5.95;4.90;;;;;;;;;;5100332;28;20398;-84
2021/11/07 04:34:26;;;;;;;5.53;4.72;;;;;;;;;;5106589;27;20446;-84
2021/11/07 04:36:55;;;;;;;6.00;4.78;;;;;;;;;;5097617;28;20397;-84
2021/11/07 04:39:23;;;;;;;6.03;4.75;;;;;;;;;;5099538;28;20406;-84
2021/11/07 04:41:50;;;;;;;5.53;4.70;;;;;;;;;;5096511;28;20400;-84
2021/11/07 04:44:16;;;;;;;6.03;4.72;;;;;;;;;;5103125;28;20398;-85
2021/11/07 04:46:43;;;;;;;6.28;4.90;;;;;;;;;;5096689;28;20423;-84
2021/11/07 04:49:10;;;;;;;5.67;4.97;;;;;;;;;;5096227;28;20427;-85
2021/11/07 04:51:37;;;;;;;6.32;4.70;;;;;;;;;;5100107;28;20496;-84
2021/11/07 04:54:06;;;;;;;5.47;4.90;;;;;;;;;;5097421;28;20748;-84
2021/11/07 04:56:32;;;;;;;5.25;4.63;;;;;;;;;;5098170;28;20855;-84
2021/11/07 04:59:00;;;;;;;5.10;4.60;;;;;;;;;;5095206;28;21029;-84
2021/11/07 05:01:27;;;;;;;6.22;4.20;;;;;;;;;;5099436;28;21122;-84
2021/11/07 05:03:54;;;;;;;6.70;4.80;;;;;;;;;;5093029;28;20775;-83
2021/11/07 05:06:21;;;;;;;5.47;4.30;;;;;;;;;;5089538;28;20421;-83
2021/11/07 05:08:48;;;;;;;4.50;4.10;;;;;;;;;;5100949;28;20426;-82
2021/11/07 05:11:16;;;;;;;5.20;4.25;;;;;;;;;;5103550;28;20406;-85
2021/11/07 05:13:43;;;;;;;4.70;3.88;;;;;;;;;;5101647;28;20408;-83
2021/11/07 05:16:10;;;;;;;4.50;4.10;;;;;;;;;;5098852;28;20410;-84
2021/11/07 05:18:37;;;;;;;4.73;3.97;;;;;;;;;;5101382;28;20428;-84
2021/11/07 05:21:04;;;;;;;4.82;4.10;;;;;;;;;;5102321;28;20438;-84
2021/11/07 05:23:31;;;;;;;6.03;4.05;;;;;;;;;;5100246;28;20441;-83
2021/11/07 05:25:58;;;;;;;5.60;4.20;;;;;;;;;;5098266;28;20407;-83
2021/11/07 05:28:27;;;;;;;4.53;3.85;;;;;;;;;;5100002;28;20418;-82
2021/11/07 05:30:54;;;;;;;5.05;4.15;;;;;;;;;;5098435;28;20392;-83
2021/11/07 05:33:21;;;;;;;5.10;4.10;;;;;;;;;;5103906;28;20535;-84
2021/11/07 05:35:48;;;;;;;4.85;3.90;;;;;;;;;;5105844;27;20398;-82
2021/11/07 05:38:15;;;;;;;4.80;4.00;;;;;;;;;;5102943;28;20821;-82
2021/11/07 05:40:42;;;;;;;5.50;4.15;;;;;;;;;;5096737;28;20426;-83
2021/11/07 05:43:09;;;;;;;5.78;4.10;;;;;;;;;;5103143;28;20407;-83
2021/11/07 05:45:37;;;;;;;5.93;4.38;;;;;;;;;;5100247;28;20733;-83
2021/11/07 05:48:06;;;;;;;4.10;3.70;;;;;;;;;;5101857;28;20398;-83
2021/11/07 05:50:34;;;;;;;4.55;4.10;;;;;;;;;;5097626;28;20455;-83
2021/11/07 05:53:01;;;;;;;4.50;4.05;;;;;;;;;;5105214;28;20405;-85
2021/11/07 05:55:28;;;;;;;5.07;4.00;;;;;;;;;;5100565;28;20408;-85
2021/11/07 05:57:55;;;;;;;4.65;4.18;;;;;;;;;;5104592;28;20394;-83
2021/11/07 06:00:22;;;;;;;4.85;3.88;;;;;;;;;;5106800;28;20489;-83
2021/11/07 06:02:51;;;;;;;5.28;3.92;;;;;;;;;;5105764;28;20906;-83
2021/11/07 06:05:19;;;;;;;4.78;4.28;;;;;;;;;;5101478;28;20444;-83
2021/11/07 06:07:47;;;;;;;6.30;4.22;;;;;;;;;;5103907;28;20464;-83
2021/11/07 06:10:14;;;;;;;5.80;4.30;;;;;;;;;;5101198;28;20535;-83
2021/11/07 06:12:41;;;;;;;7.97;4.60;;;;;;;;;;5099351;28;20430;-82
2021/11/07 06:15:09;;;;;;;5.13;4.38;;;;;;;;;;5103379;28;20406;-82
2021/11/07 06:17:35;;;;;;;9.82;5.45;;;;;;;;;;5101523;28;20464;-85
2021/11/07 06:20:05;;;;;;;5.80;4.80;;;;;;;;;;5105050;28;20407;-84
2021/11/07 06:22:32;;;;;;;4.57;4.03;;;;;;;;;;5103240;28;20763;-83
2021/11/07 06:24:59;;;;;;;4.70;4.22;;;;;;;;;;5105854;28;20407;-84
2021/11/07 06:27:29;;;;;;;5.13;4.47;;;;;;;;;;5106834;28;20403;-83
2021/11/07 06:29:56;;;;;;;4.88;4.35;;;;;;;;;;5104364;28;20461;-83
2021/11/07 06:32:23;;;;;;;4.60;4.20;;;;;;;;;;5103556;28;20414;-83
2021/11/07 06:34:49;;;;;;;4.70;4.30;;;;;;;;;;5108435;27;20754;-82
2021/11/07 06:37:18;;;;;;;5.63;4.78;;;;;;;;;;5099438;28;20413;-83
2021/11/07 06:39:45;;;;;;;5.18;4.50;;;;;;;;;;5098151;28;20413;-84
2021/11/07 06:42:12;;;;;;;5.22;4.25;;;;;;;;;;5098033;28;20424;-84
2021/11/07 06:44:39;;;;;;;5.63;4.40;;;;;;;;;;5098533;28;20398;-84
2021/11/07 06:47:09;;;;;;;5.20;4.10;;;;;;;;;;5105227;28;20404;-83
2021/11/07 06:49:35;;;;;;;5.70;4.20;;;;;;;;;;5102956;28;21019;-83
2021/11/07 06:52:03;;;;;;;5.93;4.23;;;;;;;;;;5102791;28;20895;-82
2021/11/07 06:54:32;;;;;;;6.20;4.03;;;;;;;;;;5102936;28;20436;-83
2021/11/07 06:57:02;;;;;;;6.28;5.28;;;;;;;;;;5105031;28;20565;-83
2021/11/07 06:59:29;;;;;;;8.50;5.88;;;;;;;;;;5102530;28;20942;-84
2021/11/07 07:01:56;;;;;;;6.20;5.60;;;;;;;;;;5101787;28;20456;-85
2021/11/07 07:04:23;;;;;;;6.07;5.47;;;;;;;;;;5105115;28;20498;-85
2021/11/07 07:06:50;;;;;;;6.13;5.53;;;;;;;;;;5104107;28;20403;-84
2021/11/07 07:09:22;;;;;;;6.10;4.90;;;;;;;;;;5102412;28;20846;-84
2021/11/07 07:11:52;;;;;;;5.57;5.00;;;;;;;;;;5098432;28;20491;-83
2021/11/07 07:14:22;;;;;;;5.88;4.65;;;;;;;;;;5102674;28;20448;-84
2021/11/07 07:16:56;;;;;;;5.20;4.55;;;;;;;;;;5106354;28;20446;-82
2021/11/07 07:19:48;;;;;;;6.73;4.97;;;;;;;;;;5103668;28;20502;-84
2021/11/07 07:22:43;;;;;;;6.43;4.90;;;;;;;;;;5116064;28;20462;-83
2021/11/07 07:25:29;;;;;;;6.43;5.82;;;;;;;;;;5127201;28;20412;-84
2021/11/07 07:30:47;;;;;;;6.15;5.30;;;;;;;;;;5069402;28;20470;-84
2021/11/07 07:33:29;;;;;;;6.25;5.43;;;;;;;;;;5102660;28;20423;-83
2021/11/07 07:35:57;;;;;;;6.30;5.45;;;;;;;;;;5102152;28;20803;-83
2021/11/07 07:38:24;;;;;;;7.53;5.72;;;;;;;;;;5094355;28;20442;-83
2021/11/07 07:40:51;;;;;;;5.47;4.70;;;;;;;;;;5100040;28;20392;-83
2021/11/07 07:43:20;;;;;;;7.35;5.47;;;;;;;;;;5102105;28;20446;-83
2021/11/07 07:45:47;;;;;;;7.10;5.60;;;;;;;;;;5097944;28;20458;-83
2021/11/07 07:48:17;;;;;;;8.68;5.50;;;;;;;;;;5104266;28;20418;-83
2021/11/07 07:50:44;;;;;;;6.72;5.75;;;;;;;;;;5100759;28;20472;-83
2021/11/07 07:53:13;;;;;;;6.95;5.25;;;;;;;;;;5098993;28;20410;-83
2021/11/07 07:55:40;;;;;;;6.22;5.10;;;;;;;;;;5101450;28;20450;-83
2021/11/07 07:58:06;;;;;;;5.32;4.47;;;;;;;;;;5104110;28;21058;-82
2021/11/07 08:00:35;;;;;;;5.07;4.30;;;;;;;;;;5099270;28;20883;-84
2021/11/07 08:03:02;;;;;;;5.03;4.30;;;;;;;;;;5103611;28;20412;-83
2021/11/07 08:05:29;;;;;;;5.35;4.60;;;;;;;;;;5098458;28;20748;-84
2021/11/07 08:07:56;;;;;;;7.95;5.57;;;;;;;;;;5100439;28;20413;-83
2021/11/07 08:10:23;;;;;;;5.37;4.80;;;;;;;;;;5100572;28;20423;-83
2021/11/07 08:12:49;;;;;;;5.05;4.55;;;;;;;;;;5096451;28;20406;-83
2021/11/07 08:15:17;;;;;;;5.65;4.97;;;;;;;;;;5095807;28;20451;-84
2021/11/07 08:17:45;;;;;;;7.13;5.43;;;;;;;;;;5097837;28;20423;-83
2021/11/07 08:20:16;;;;;;;7.20;5.60;;;;;;;;;;5104065;28;20497;-83
2021/11/07 08:22:43;;;;;;;6.57;5.68;;;;;;;;;;5103270;28;20971;-84
2021/11/07 08:25:12;;;;;;;6.75;5.63;;;;;;;;;;5103676;28;20430;-84
2021/11/07 08:27:40;;;;;;;6.82;5.30;;;;;;;;;;5096184;28;20450;-83
2021/11/07 08:30:09;;;;;;;7.80;5.32;;;;;;;;;;5095379;28;20896;-83
2021/11/07 08:32:36;;;;;;;6.90;5.05;;;;;;;;;;5100265;28;20455;-85
2021/11/07 08:35:05;;;;;;;6.32;4.97;;;;;;;;;;5105084;28;20788;-83
2021/11/07 08:37:35;;;;;;;6.50;4.57;;;;;;;;;;5102025;28;20406;-82
2021/11/07 08:40:06;;;;;;;6.63;4.43;;;;;;;;;;5099363;28;20919;-85
2021/11/07 08:42:35;;;;;;;6.18;4.50;;;;;;;;;;5093365;28;20472;-83
2021/11/07 09:01:38;;;;;;;4.43;3.70;;;;;;;;;;5103582;28;20436;-84
2021/11/07 09:04:20;;;;;;;5.88;4.10;;;;;;;;;;5102836;28;20935;-82
2021/11/07 09:07:13;;;;;;;5.18;4.00;;;;;;;;;;5106336;28;20409;-82
2021/11/07 09:09:42;;;;;;;5.35;4.13;;;;;;;;;;5091144;28;20429;-82
2021/11/07 09:12:09;;;;;;;5.60;4.10;;;;;;;;;;5106739;28;20413;-82
2021/11/07 09:14:39;;;;;;;8.93;4.82;;;;;;;;;;5106267;28;20390;-83
2021/11/07 09:17:08;;;;;;;6.70;4.87;;;;;;;;;;5103022;28;20403;-82
2021/11/07 09:19:37;;;;;;;6.47;4.82;;;;;;;;;;5098492;28;20733;-82
2021/11/07 09:22:10;;;;;;;7.30;4.97;;;;;;;;;;5105208;28;20402;-83
2021/11/07 09:24:41;;;;;;;6.50;4.88;;;;;;;;;;5102644;28;20773;-82
2021/11/07 09:27:14;;;;;;;6.10;4.65;;;;;;;;;;5101396;28;20399;-82
2021/11/07 09:29:52;;;;;;;7.95;4.88;;;;;;;;;;5098840;28;20469;-82
2021/11/07 09:37:55;;;;;;;3.67;2.80;;;;;;;;;;5097766;28;20439;-83
2021/11/07 09:40:25;;;;;;;3.38;2.42;;;;;;;;;;5096598;28;21314;-83
2021/11/07 09:45:45;;;;;;;3.08;2.40;;;;;;;;;;5095823;28;20395;-82
2021/11/07 09:48:15;;;;;;;3.03;2.10;;;;;;;;;;5099666;28;20919;-83
2021/11/07 09:50:45;;;;;;;7.25;5.35;;;;;;;;;;5103625;28;20424;-82
2021/11/07 09:53:14;;;;;;;4.93;4.18;;;;;;;;;;5102059;28;20893;-83
2021/11/07 09:55:41;;;;;;;6.90;6.20;;;;;;;;;;5103220;28;20403;-82
2021/11/07 09:58:08;;;;;;;1.70;1.60;;;;;;;;;;5100927;28;20394;-82
2021/11/07 10:00:41;;;;;;;2.28;1.67;;;;;;;;;;5102927;28;20394;-82
2021/11/07 10:03:09;;;;;;;2.97;2.30;;;;;;;;;;5099767;28;20399;-82
2021/11/07 10:05:37;;;;;;;2.75;1.83;;;;;;;;;;5096467;28;20392;-82
2021/11/07 10:08:07;;;;;;;5.00;2.28;;;;;;;;;;5103948;28;20430;-82
2021/11/07 10:10:39;;;;;;;4.28;2.35;;;;;;;;;;5101651;28;20418;-83
2021/11/07 10:13:07;;;;;;;4.32;2.50;;;;;;;;;;5100779;28;20404;-83
2021/11/07 10:15:41;;;;;;;4.70;2.77;;;;;;;;;;5103247;28;20432;-82
2021/11/07 10:18:13;;;;;;;3.60;2.20;;;;;;;;;;5100302;28;20423;-82
2021/11/07 10:20:44;;;;;;;3.33;2.13;;;;;;;;;;5103068;28;20768;-83
2021/11/07 10:23:15;;;;;;;4.38;3.22;;;;;;;;;;5103672;28;20418;-82
2021/11/07 10:25:49;;;;;;;3.15;2.03;;;;;;;;;;5098661;28;20415;-83
2021/11/07 10:28:21;;;;;;;3.45;2.33;;;;;;;;;;5101965;28;20430;-83
2021/11/07 10:31:05;;;;;;;4.18;2.72;;;;;;;;;;5097210;28;20421;-82
2021/11/07 10:33:57;;;;;;;3.33;2.03;;;;;;;;;;5099487;28;20442;-82
2021/11/07 10:36:47;;;;;;;3.45;1.58;;;;;;;;;;5094326;28;20400;-82
2021/11/07 10:42:19;;;;;;;2.63;1.60;;;;;;;;;;5089081;28;20446;-83
2021/11/07 10:47:59;;;;;;;3.80;2.23;;;;;;;;;;5104997;28;20750;-82
2021/11/07 10:53:15;;;;;;;3.05;2.00;;;;;;;;;;5100222;28;21120;-84
2021/11/07 10:55:46;;;;;;;4.80;2.28;;;;;;;;;;5121132;28;20389;-83
2021/11/07 10:58:14;;;;;;;4.35;2.10;;;;;;;;;;5122028;28;20458;-82
2021/11/07 11:00:43;;;;;;;4.20;2.20;;;;;;;;;;5114129;28;20400;-82
2021/11/07 11:03:12;;;;;;;3.03;2.08;;;;;;;;;;5095026;28;20801;-85
2021/11/07 11:05:43;;;;;;;3.45;2.00;;;;;;;;;;5099969;28;20403;-82
2021/11/07 11:08:16;;;;;;;2.95;2.05;;;;;;;;;;5099944;28;20486;-82
2021/11/07 11:10:56;;;;;;;2.63;1.80;;;;;;;;;;5101173;27;20479;-82
2021/11/07 11:13:42;;;;;;;3.67;2.05;;;;;;;;;;5096882;28;20414;-82
2021/11/07 11:19:34;;;;;;;2.60;1.90;;;;;;;;;;5096586;28;20546;-84
2021/11/07 11:27:59;;;;;;;4.32;2.80;;;;;;;;;;5092476;28;21326;-84
2021/11/07 11:30:41;;;;;;;3.92;2.85;;;;;;;;;;5099014;28;20524;-82
2021/11/07 11:33:12;;;;;;;4.50;2.80;;;;;;;;;;5098559;28;20409;-83
2021/11/07 11:35:44;;;;;;;4.28;3.28;;;;;;;;;;5094108;28;20420;-83
2021/11/07 11:38:14;;;;;;;7.38;3.83;;;;;;;;;;5099861;28;20409;-82
2021/11/07 11:40:53;;;;;;;5.32;3.50;;;;;;;;;;5097752;28;20405;-82
2021/11/07 11:43:26;;;;;;;4.53;3.38;;;;;;;;;;5100180;28;20405;-83
2021/11/07 11:45:59;;;;;;;4.05;3.38;;;;;;;;;;5097161;28;20399;-82
2021/11/07 11:48:49;;;;;;;4.82;3.15;;;;;;;;;;5092640;28;20412;-83
2021/11/07 11:51:32;;;;;;;3.60;3.20;;;;;;;;;;5095393;28;20412;-83
2021/11/07 11:54:44;;;;;;;4.80;3.35;;;;;;;;;;5100681;28;20878;-82
2021/11/07 11:57:25;;;;;;;4.03;3.20;;;;;;;;;;5098983;28;20410;-83
2021/11/07 12:00:05;;;;;;;5.22;3.38;;;;;;;;;;5099133;28;20793;-82
2021/11/07 12:02:48;;;;;;;5.68;3.38;;;;;;;;;;5097013;28;20429;-83
2021/11/07 12:05:23;;;;;;;5.80;3.47;;;;;;;;;;5096208;28;20404;-82
2021/11/07 12:08:36;;;;;;;5.03;3.60;;;;;;;;;;5100384;28;20490;-83
2021/11/07 12:11:23;;;;;;;4.63;3.80;;;;;;;;;;5095377;28;20430;-84
2021/11/07 12:14:01;;;;;;;4.47;3.20;;;;;;;;;;5099540;28;20410;-82
2021/11/07 12:16:48;;;;;;;5.03;3.38;;;;;;;;;;5099997;28;20394;-83
2021/11/07 12:19:19;;;;;;;5.20;3.30;;;;;;;;;;5099647;28;20399;-82
2021/11/07 12:22:00;;;;;;;4.93;3.50;;;;;;;;;;5101770;28;21314;-83
2021/11/07 12:24:32;;;;;;;3.97;3.58;;;;;;;;;;5102807;28;20406;-83
2021/11/07 12:27:24;;;;;;;4.70;3.30;;;;;;;;;;5099087;28;20481;-84
2021/11/07 12:29:53;;;;;;;4.07;3.53;;;;;;;;;;5097092;28;20406;-83
2021/11/07 12:32:23;;;;;;;5.18;3.60;;;;;;;;;;5103150;28;20425;-84
2021/11/07 12:35:16;;;;;;;4.60;3.58;;;;;;;;;;5098136;28;20402;-83
2021/11/07 12:40:47;;;;;;;3.78;3.28;;;;;;;;;;5094897;28;20506;-83
2021/11/07 12:43:17;;;;;;;3.67;3.08;;;;;;;;;;5097267;28;20475;-82
2021/11/07 12:45:47;;;;;;;3.78;3.20;;;;;;;;;;5104223;28;20433;-82
2021/11/07 12:48:36;;;;;;;5.32;3.42;;;;;;;;;;5100995;28;21092;-83
2021/11/07 12:51:08;;;;;;;4.00;3.60;;;;;;;;;;5102131;28;20449;-82
2021/11/07 12:53:55;;;;;;;3.85;3.45;;;;;;;;;;5102894;28;20402;-83
2021/11/07 12:56:51;;;;;;;4.15;3.63;;;;;;;;;;5103723;28;20444;-82
2021/11/07 12:59:22;;;;;;;4.43;3.80;;;;;;;;;;5096749;28;20460;-82
2021/11/07 13:02:11;;;;;;;4.93;3.70;;;;;;;;;;5098050;28;20518;-84
2021/11/07 13:04:50;;;;;;;6.20;4.10;;;;;;;;;;5101849;28;20400;-82
2021/11/07 13:07:24;;;;;;;5.93;4.20;;;;;;;;;;5102203;28;20765;-85
2021/11/07 13:09:57;;;;;;;6.38;4.28;;;;;;;;;;5099672;28;20406;-84
2021/11/07 13:12:27;;;;;;;4.50;3.97;;;;;;;;;;5100246;28;20517;-83
2021/11/07 13:18:13;;;;;;;4.80;4.10;;;;;;;;;;5080423;27;20423;-85
2021/11/07 13:23:46;;;;;;;5.18;3.70;;;;;;;;;;5097286;28;20463;-83
2021/11/07 13:26:28;;;;;;;5.65;3.67;;;;;;;;;;5101499;28;20756;-84
2021/11/07 13:29:08;;;;;;;5.78;3.53;;;;;;;;;;5103872;28;20409;-83
2021/11/07 13:31:46;;;;;;;4.50;3.72;;;;;;;;;;5102186;28;20736;-83
2021/11/07 13:34:18;;;;;;;3.60;3.30;;;;;;;;;;5103282;28;20910;-83
2021/11/07 13:36:46;;;;;;;3.70;3.28;;;;;;;;;;5099433;28;20414;-83
2021/11/07 13:39:22;;;;;;;3.45;3.15;;;;;;;;;;5099906;28;20402;-83
2021/11/07 13:41:53;;;;;;;3.45;3.15;;;;;;;;;;5099189;28;20427;-84
2021/11/07 13:44:24;;;;;;;4.20;3.03;;;;;;;;;;5100318;28;20835;-83
2021/11/07 13:46:52;;;;;;;3.58;2.95;;;;;;;;;;5097355;28;21052;-83
2021/11/07 13:49:19;;;;;;;5.22;2.88;;;;;;;;;;5101850;28;21172;-85
2021/11/07 13:51:54;;;;;;;4.20;3.00;;;;;;;;;;5101129;28;20774;-84
2021/11/07 13:54:23;;;;;;;3.40;2.97;;;;;;;;;;5092828;28;20406;-83
2021/11/07 13:56:51;;;;;;;4.03;3.60;;;;;;;;;;5101272;28;20410;-83
2021/11/07 13:59:32;;;;;;;4.20;3.20;;;;;;;;;;5095158;28;20884;-83
2021/11/07 14:01:59;;;;;;;4.07;3.05;;;;;;;;;;5096908;28;20408;-84
2021/11/07 14:04:40;;;;;;;3.60;3.30;;;;;;;;;;5095236;28;20409;-84
2021/11/07 14:07:20;;;;;;;4.03;3.35;;;;;;;;;;5099148;28;20428;-83
2021/11/07 14:10:00;;;;;;;3.92;3.30;;;;;;;;;;5099232;28;20411;-83
2021/11/07 14:12:29;;;;;;;4.03;3.20;;;;;;;;;;5100229;28;20414;-83
2021/11/07 14:15:04;;;;;;;4.75;3.40;;;;;;;;;;5100388;28;20395;-83
2021/11/07 14:17:32;;;;;;;4.03;2.92;;;;;;;;;;5096804;28;20897;-84
2021/11/07 14:19:59;;;;;;;3.70;3.30;;;;;;;;;;5105153;28;20398;-83
2021/11/07 14:22:26;;;;;;;3.70;3.22;;;;;;;;;;5101129;28;20406;-85
2021/11/07 14:24:53;;;;;;;4.88;3.08;;;;;;;;;;5096405;28;20419;-83
2021/11/07 14:27:32;;;;;;;4.57;3.13;;;;;;;;;;5100333;28;20720;-84
2021/11/07 14:30:03;;;;;;;3.83;3.08;;;;;;;;;;5103578;28;20431;-85
2021/11/07 14:32:33;;;;;;;5.10;3.45;;;;;;;;;;5101198;28;20460;-82
2021/11/07 14:35:04;;;;;;;4.38;3.90;;;;;;;;;;5094881;28;20392;-83
2021/11/07 14:37:35;;;;;;;4.22;3.83;;;;;;;;;;5096220;28;20443;-83
2021/11/07 14:40:08;;;;;;;4.47;3.70;;;;;;;;;;5100180;28;21032;-84
2021/11/07 14:42:59;;;;;;;4.28;3.58;;;;;;;;;;5101429;28;20407;-83
2021/11/07 14:45:33;;;;;;;4.63;3.50;;;;;;;;;;5096647;28;20545;-85
2021/11/07 14:54:00;;;;;;;4.33;3.47;;;;;;;;;;5093175;28;20947;-83
2021/11/07 14:56:35;;;;;;;3.88;3.30;;;;;;;;;;5103072;27;20723;-83
2021/11/07 14:59:10;;;;;;;3.92;3.10;;;;;;;;;;5096217;28;20443;-83
2021/11/07 15:01:40;;;;;;;5.90;3.63;;;;;;;;;;5098710;28;20406;-83
2021/11/07 15:04:12;;;;;;;4.27;3.87;;;;;;;;;;5101518;28;20475;-83
2021/11/07 15:06:56;;;;;;;5.10;4.40;;;;;;;;;;5098831;28;20481;-83
2021/11/07 15:09:28;;;;;;;7.23;4.40;;;;;;;;;;5101673;28;20497;-82
2021/11/07 15:12:22;;;;;;;4.77;4.27;;;;;;;;;;5108768;28;20425;-82
2021/11/07 15:15:25;;;;;;;6.57;4.73;;;;;;;;;;5108062;28;20888;-84
2021/11/07 15:17:57;;;;;;;7.75;5.00;;;;;;;;;;5121745;28;20404;-84
2021/11/07 15:20:30;;;;;;;7.63;5.65;;;;;;;;;;5116682;28;20477;-83
2021/11/07 15:22:57;;;;;;;7.20;5.80;;;;;;;;;;5096115;28;20485;-84
2021/11/07 15:25:29;;;;;;;7.90;6.10;;;;;;;;;;5097119;28;20419;-82
2021/11/07 15:27:59;;;;;;;7.70;5.68;;;;;;;;;;5101481;28;20401;-84
2021/11/07 15:30:27;;;;;;;8.85;7.00;;;;;;;;;;5097228;28;20396;-82
2021/11/07 15:32:54;;;;;;;7.90;5.77;;;;;;;;;;5099220;28;20418;-83
2021/11/07 15:35:23;;;;;;;7.10;6.10;;;;;;;;;;5095860;28;20394;-82
2021/11/07 15:37:51;;;;;;;7.45;5.78;;;;;;;;;;5098876;28;20422;-82
2021/11/07 15:40:28;;;;;;;10.33;7.63;;;;;;;;;;5099847;28;20493;-81
2021/11/07 15:42:55;;;;;;;10.43;7.93;;;;;;;;;;5100048;28;20406;-82
2021/11/07 15:45:24;;;;;;;9.40;7.97;;;;;;;;;;5100859;28;21147;-82
2021/11/07 15:47:55;;;;;;;13.18;9.07;;;;;;;;;;5100008;28;20501;-82
2021/11/07 15:50:29;;;;;;;13.57;9.38;;;;;;;;;;5099146;28;20465;-82
2021/11/07 15:53:02;;;;;;;12.88;9.23;;;;;;;;;;5101602;28;20820;-82
2021/11/07 15:55:35;;;;;;;10.13;7.80;;;;;;;;;;5101157;28;20422;-81
2021/11/07 15:58:30;;;;;;;10.38;7.72;;;;;;;;;;5099793;28;20391;-82
2021/11/07 16:01:05;;;;;;;9.18;7.68;;;;;;;;;;5090408;28;20413;-83
2021/11/07 16:03:42;;;;;;;11.27;8.15;;;;;;;;;;5094262;28;20824;-81
2021/11/07 16:11:40;;;;;;;9.70;7.50;;;;;;;;;;5077866;28;20407;-82
2021/11/07 16:14:18;;;;;;;9.98;7.25;;;;;;;;;;5095263;28;20415;-82